sensor_id;sensor_type;location;lat;lon;timestamp;pressure;altitude;pressure_sealevel;temperature;humidity
40596;BME280;26304;48.794;9.820;2023-02-22T00:05:03;96233.94;;;17.68;45.86
40596;BME280;26304;48.794;9.820;2023-02-22T00:10:46;96224.16;;;17.65;46.38
40596;BME280;26304;48.794;9.820;2023-02-22T00:16:32;96224.53;;;17.64;45.95
40596;BME280;26304;48.794;9.820;2023-02-22T00:22:15;96211.75;;;17.62;45.97
40596;BME280;26304;48.794;9.820;2023-02-22T00:27:59;96215.50;;;17.61;46.44
40596;BME280;26304;48.794;9.820;2023-02-22T00:33:43;96219.25;;;17.60;46.04
40596;BME280;26304;48.794;9.820;2023-02-22T00:39:25;96218.84;;;17.58;46.11
40596;BME280;26304;48.794;9.820;2023-02-22T00:45:08;96219.22;;;17.56;46.22
40596;BME280;26304;48.794;9.820;2023-02-22T00:50:52;96216.22;;;17.54;45.93
40596;BME280;26304;48.794;9.820;2023-02-22T00:56:35;96212.44;;;17.52;46.06
40596;BME280;26304;48.794;9.820;2023-02-22T01:02:18;96207.94;;;17.49;46.39
40596;BME280;26304;48.794;9.820;2023-02-22T01:08:02;96197.41;;;17.49;45.86
40596;BME280;26304;48.794;9.820;2023-02-22T01:13:46;96195.91;;;17.48;46.31
40596;BME280;26304;48.794;9.820;2023-02-22T01:19:29;96194.00;;;17.45;46.16
40596;BME280;26304;48.794;9.820;2023-02-22T01:25:17;96188.38;;;17.42;45.81
40596;BME280;26304;48.794;9.820;2023-02-22T01:31:00;96189.84;;;17.43;45.64
40596;BME280;26304;48.794;9.820;2023-02-22T01:36:43;96191.00;;;17.42;45.60
40596;BME280;26304;48.794;9.820;2023-02-22T01:42:27;96187.59;;;17.38;46.03
40596;BME280;26304;48.794;9.820;2023-02-22T01:48:13;96179.31;;;17.36;45.57
40596;BME280;26304;48.794;9.820;2023-02-22T01:53:59;96180.44;;;17.39;45.70
40596;BME280;26304;48.794;9.820;2023-02-22T01:59:47;96163.16;;;17.34;45.74
40596;BME280;26304;48.794;9.820;2023-02-22T02:05:32;96153.03;;;17.33;46.03
40596;BME280;26304;48.794;9.820;2023-02-22T02:11:18;96156.03;;;17.31;45.55
40596;BME280;26304;48.794;9.820;2023-02-22T02:17:03;96154.50;;;17.30;45.67
40596;BME280;26304;48.794;9.820;2023-02-22T02:22:51;96142.09;;;17.27;45.71
40596;BME280;26304;48.794;9.820;2023-02-22T02:28:58;96143.97;;;17.27;45.95
40596;BME280;26304;48.794;9.820;2023-02-22T02:34:51;96130.44;;;17.24;45.62
40596;BME280;26304;48.794;9.820;2023-02-22T02:40:44;96131.94;;;17.22;45.83
40596;BME280;26304;48.794;9.820;2023-02-22T02:46:32;96115.41;;;17.21;45.99
40596;BME280;26304;48.794;9.820;2023-02-22T02:52:20;96111.66;;;17.19;45.49
40596;BME280;26304;48.794;9.820;2023-02-22T02:58:06;96110.91;;;17.18;45.84
40596;BME280;26304;48.794;9.820;2023-02-22T03:10:14;96093.63;;;17.14;45.85
40596;BME280;26304;48.794;9.820;2023-02-22T03:16:10;96087.97;;;17.12;45.77
40596;BME280;26304;48.794;9.820;2023-02-22T03:21:59;96085.34;;;17.12;45.37
40596;BME280;26304;48.794;9.820;2023-02-22T03:27:48;96078.97;;;17.09;45.91
40596;BME280;26304;48.794;9.820;2023-02-22T03:33:38;96068.75;;;16.97;46.15
40596;BME280;26304;48.794;9.820;2023-02-22T03:39:22;96071.00;;;16.95;45.73
40596;BME280;26304;48.794;9.820;2023-02-22T03:45:13;96074.75;;;16.94;45.66
40596;BME280;26304;48.794;9.820;2023-02-22T03:50:57;96076.97;;;16.92;46.12
40596;BME280;26304;48.794;9.820;2023-02-22T03:56:44;96077.72;;;16.88;45.63
40596;BME280;26304;48.794;9.820;2023-02-22T04:02:31;96074.72;;;16.86;45.90
40596;BME280;26304;48.794;9.820;2023-02-22T04:08:14;96077.34;;;16.86;45.72
40596;BME280;26304;48.794;9.820;2023-02-22T04:13:56;96073.16;;;16.82;46.14
40596;BME280;26304;48.794;9.820;2023-02-22T04:19:40;96067.91;;;16.82;45.67
40596;BME280;26304;48.794;9.820;2023-02-22T04:25:25;96059.63;;;16.80;45.60
40596;BME280;26304;48.794;9.820;2023-02-22T04:31:08;96064.47;;;16.78;45.51
40596;BME280;26304;48.794;9.820;2023-02-22T04:36:51;96066.31;;;16.74;45.66
40596;BME280;26304;48.794;9.820;2023-02-22T04:42:34;96059.97;;;16.75;45.70
40596;BME280;26304;48.794;9.820;2023-02-22T04:48:17;96062.94;;;16.73;45.60
40596;BME280;26304;48.794;9.820;2023-02-22T04:54:01;96055.06;;;16.73;45.81
40596;BME280;26304;48.794;9.820;2023-02-22T04:59:43;96051.72;;;16.73;45.97
40596;BME280;26304;48.794;9.820;2023-02-22T05:05:26;96048.34;;;16.72;45.85
40596;BME280;26304;48.794;9.820;2023-02-22T05:11:10;96049.03;;;16.65;46.14
40596;BME280;26304;48.794;9.820;2023-02-22T05:16:53;96047.91;;;16.63;45.89
40596;BME280;26304;48.794;9.820;2023-02-22T05:22:36;96034.00;;;16.62;45.95
40596;BME280;26304;48.794;9.820;2023-02-22T05:28:19;96043.44;;;16.70;45.93
40596;BME280;26304;48.794;9.820;2023-02-22T05:34:02;96039.31;;;16.69;46.21
40596;BME280;26304;48.794;9.820;2023-02-22T05:39:44;96029.53;;;16.63;46.20
40596;BME280;26304;48.794;9.820;2023-02-22T05:45:29;96025.03;;;16.63;46.32
40596;BME280;26304;48.794;9.820;2023-02-22T05:51:11;96020.56;;;16.71;46.95
40596;BME280;26304;48.794;9.820;2023-02-22T05:56:54;96025.06;;;16.70;46.68
40596;BME280;26304;48.794;9.820;2023-02-22T06:02:37;96020.56;;;16.71;46.48
40596;BME280;26304;48.794;9.820;2023-02-22T06:08:20;96017.59;;;16.76;47.15
40596;BME280;26304;48.794;9.820;2023-02-22T06:14:02;96019.50;;;16.79;46.96
40596;BME280;26304;48.794;9.820;2023-02-22T06:19:46;96008.25;;;16.79;46.87
40596;BME280;26304;48.794;9.820;2023-02-22T06:25:29;96018.03;;;16.82;46.69
40596;BME280;26304;48.794;9.820;2023-02-22T06:31:12;96020.25;;;16.80;47.56
40596;BME280;26304;48.794;9.820;2023-02-22T06:36:56;96022.97;;;16.94;47.81
40596;BME280;26304;48.794;9.820;2023-02-22T06:42:39;96020.75;;;17.00;47.71
40596;BME280;26304;48.794;9.820;2023-02-22T06:48:22;96023.81;;;17.13;47.64
40596;BME280;26304;48.794;9.820;2023-02-22T06:54:05;96024.53;;;17.06;48.68
40596;BME280;26304;48.794;9.820;2023-02-22T06:59:48;96031.31;;;17.11;48.49
40596;BME280;26304;48.794;9.820;2023-02-22T07:05:30;96032.44;;;17.10;48.50
40596;BME280;26304;48.794;9.820;2023-02-22T07:11:14;96037.69;;;17.10;48.44
40596;BME280;26304;48.794;9.820;2023-02-22T07:16:57;96038.06;;;17.12;48.70
40596;BME280;26304;48.794;9.820;2023-02-22T07:22:40;96032.47;;;17.17;48.04
40596;BME280;26304;48.794;9.820;2023-02-22T07:28:23;96044.16;;;17.30;47.69
40596;BME280;26304;48.794;9.820;2023-02-22T07:34:06;96033.22;;;17.17;48.36
40596;BME280;26304;48.794;9.820;2023-02-22T07:39:49;96043.38;;;17.19;48.84
40596;BME280;26304;48.794;9.820;2023-02-22T07:45:34;96038.50;;;17.21;48.41
40596;BME280;26304;48.794;9.820;2023-02-22T07:51:16;96040.38;;;17.24;48.73
40596;BME280;26304;48.794;9.820;2023-02-22T07:57:01;96024.31;;;17.43;48.29
40596;BME280;26304;48.794;9.820;2023-02-22T08:02:44;96027.72;;;17.44;47.47
40596;BME280;26304;48.794;9.820;2023-02-22T08:08:27;96021.72;;;17.51;46.82
40596;BME280;26304;48.794;9.820;2023-02-22T08:14:09;96023.97;;;17.49;47.06
40596;BME280;26304;48.794;9.820;2023-02-22T08:19:53;96020.16;;;17.39;47.13
40596;BME280;26304;48.794;9.820;2023-02-22T08:25:36;96023.97;;;17.49;47.61
40596;BME280;26304;48.794;9.820;2023-02-22T08:31:18;96026.25;;;17.54;47.52
40596;BME280;26304;48.794;9.820;2023-02-22T08:37:02;96029.97;;;17.53;47.84
40596;BME280;26304;48.794;9.820;2023-02-22T08:42:44;96029.25;;;17.56;47.94
40596;BME280;26304;48.794;9.820;2023-02-22T08:48:27;96017.22;;;17.55;47.94
40596;BME280;26304;48.794;9.820;2023-02-22T08:54:10;96021.75;;;17.61;47.57
40596;BME280;26304;48.794;9.820;2023-02-22T08:59:53;96013.50;;;17.74;47.07
40596;BME280;26304;48.794;9.820;2023-02-22T09:05:35;96012.00;;;17.76;47.12
40596;BME280;26304;48.794;9.820;2023-02-22T09:11:19;96012.00;;;17.84;47.07
40596;BME280;26304;48.794;9.820;2023-02-22T09:17:03;96008.63;;;17.87;46.87
40596;BME280;26304;48.794;9.820;2023-02-22T09:22:46;96015.06;;;17.96;46.89
40596;BME280;26304;48.794;9.820;2023-02-22T09:28:30;96011.31;;;18.01;47.89
40596;BME280;26304;48.794;9.820;2023-02-22T09:34:13;96001.56;;;18.02;47.51
40596;BME280;26304;48.794;9.820;2023-02-22T09:39:55;96003.81;;;18.10;47.98
40596;BME280;26304;48.794;9.820;2023-02-22T09:45:50;96000.41;;;18.31;47.52
40596;BME280;26304;48.794;9.820;2023-02-22T09:51:42;96005.31;;;18.26;47.29
40596;BME280;26304;48.794;9.820;2023-02-22T09:57:32;95998.56;;;18.03;45.73
40596;BME280;26304;48.794;9.820;2023-02-22T10:03:21;95997.81;;;17.92;44.87
40596;BME280;26304;48.794;9.820;2023-02-22T10:09:05;95998.19;;;18.08;44.71
40596;BME280;26304;48.794;9.820;2023-02-22T10:15:13;95996.31;;;18.05;44.34
40596;BME280;26304;48.794;9.820;2023-02-22T10:21:07;95997.41;;;17.90;44.01
40596;BME280;26304;48.794;9.820;2023-02-22T10:26:55;95995.50;;;17.87;43.48
40596;BME280;26304;48.794;9.820;2023-02-22T10:32:42;95991.38;;;17.86;43.57
40596;BME280;26304;48.794;9.820;2023-02-22T10:38:29;95987.25;;;17.77;43.29
40596;BME280;26304;48.794;9.820;2023-02-22T10:44:11;95983.44;;;17.64;43.10
40596;BME280;26304;48.794;9.820;2023-02-22T10:49:56;95986.16;;;17.89;43.15
40596;BME280;26304;48.794;9.820;2023-02-22T10:56:08;95979.03;;;18.11;43.07
40596;BME280;26304;48.794;9.820;2023-02-22T11:01:51;95982.78;;;18.18;43.61
40596;BME280;26304;48.794;9.820;2023-02-22T11:07:35;95975.63;;;18.18;44.04
40596;BME280;26304;48.794;9.820;2023-02-22T11:13:23;95973.75;;;18.19;44.33
40596;BME280;26304;48.794;9.820;2023-02-22T11:19:18;95976.00;;;17.99;45.10
40596;BME280;26304;48.794;9.820;2023-02-22T11:25:04;95965.50;;;17.99;45.05
40596;BME280;26304;48.794;9.820;2023-02-22T11:30:49;95962.88;;;17.95;45.51
40596;BME280;26304;48.794;9.820;2023-02-22T11:36:35;95954.22;;;17.91;45.65
40596;BME280;26304;48.794;9.820;2023-02-22T11:42:22;95941.44;;;18.07;45.55
40596;BME280;26304;48.794;9.820;2023-02-22T11:48:06;95944.47;;;18.09;45.89
40596;BME280;26304;48.794;9.820;2023-02-22T11:53:59;95937.69;;;18.08;45.47
40596;BME280;26304;48.794;9.820;2023-02-22T11:59:59;95928.66;;;18.17;46.16
40596;BME280;26304;48.794;9.820;2023-02-22T12:05:57;95924.13;;;18.24;46.58
40596;BME280;26304;48.794;9.820;2023-02-22T12:11:47;95916.97;;;18.36;46.03
40596;BME280;26304;48.794;9.820;2023-02-22T12:17:41;95916.59;;;18.37;46.12
40596;BME280;26304;48.794;9.820;2023-02-22T12:23:40;95909.44;;;18.45;45.71
40596;BME280;26304;48.794;9.820;2023-02-22T12:29:28;95909.06;;;18.46;45.88
40596;BME280;26304;48.794;9.820;2023-02-22T12:35:15;95903.75;;;18.54;45.66
40596;BME280;26304;48.794;9.820;2023-02-22T12:41:06;95900.00;;;18.58;45.11
40596;BME280;26304;48.794;9.820;2023-02-22T12:46:51;95898.53;;;18.46;45.01
40596;BME280;26304;48.794;9.820;2023-02-22T12:52:41;95898.50;;;18.54;44.33
40596;BME280;26304;48.794;9.820;2023-02-22T12:58:31;95882.31;;;18.62;44.62
40596;BME280;26304;48.794;9.820;2023-02-22T13:04:14;95872.91;;;18.61;44.23
40596;BME280;26304;48.794;9.820;2023-02-22T13:16:20;95869.13;;;18.66;45.67
40596;BME280;26304;48.794;9.820;2023-02-22T13:22:12;95860.53;;;18.55;45.67
40596;BME280;26304;48.794;9.820;2023-02-22T13:28:00;95854.91;;;18.52;45.94
40596;BME280;26304;48.794;9.820;2023-02-22T13:33:59;95851.16;;;18.46;45.79
40596;BME280;26304;48.794;9.820;2023-02-22T13:46:13;95840.50;;;18.75;46.08
40596;BME280;26304;48.794;9.820;2023-02-22T13:52:05;95849.13;;;18.86;45.43
40596;BME280;26304;48.794;9.820;2023-02-22T13:57:49;95845.03;;;18.71;45.77
40596;BME280;26304;48.794;9.820;2023-02-22T14:03:40;95847.25;;;18.83;45.16
40596;BME280;26304;48.794;9.820;2023-02-22T14:09:42;95850.97;;;18.93;45.39
40596;BME280;26304;48.794;9.820;2023-02-22T14:15:25;95850.66;;;18.87;45.37
40596;BME280;26304;48.794;9.820;2023-02-22T14:21:09;95846.50;;;18.86;45.30
40596;BME280;26304;48.794;9.820;2023-02-22T14:26:57;95853.63;;;18.93;45.11
40596;BME280;26304;48.794;9.820;2023-02-22T14:32:40;95852.50;;;18.94;45.07
40596;BME280;26304;48.794;9.820;2023-02-22T14:38:22;95857.03;;;18.86;45.46
40596;BME280;26304;48.794;9.820;2023-02-22T14:44:06;95861.53;;;18.82;45.29
40596;BME280;26304;48.794;9.820;2023-02-22T14:49:55;95859.69;;;18.76;46.01
40596;BME280;26304;48.794;9.820;2023-02-22T14:55:43;95854.78;;;18.85;45.31
40596;BME280;26304;48.794;9.820;2023-02-22T15:01:31;95846.91;;;18.74;46.08
40596;BME280;26304;48.794;9.820;2023-02-22T15:07:20;95859.31;;;18.74;45.73
40596;BME280;26304;48.794;9.820;2023-02-22T15:13:14;95860.81;;;18.71;46.49
40596;BME280;26304;48.794;9.820;2023-02-22T15:18:59;95860.03;;;18.81;46.09
40596;BME280;26304;48.794;9.820;2023-02-22T15:24:55;95863.41;;;18.82;46.26
40596;BME280;26304;48.794;9.820;2023-02-22T15:30:39;95869.13;;;18.73;45.98
40596;BME280;26304;48.794;9.820;2023-02-22T15:36:27;95873.97;;;18.89;45.83
40596;BME280;26304;48.794;9.820;2023-02-22T15:42:12;95865.31;;;18.78;45.69
40596;BME280;26304;48.794;9.820;2023-02-22T15:47:59;95874.78;;;18.64;45.81
40596;BME280;26304;48.794;9.820;2023-02-22T15:53:46;95872.88;;;18.65;46.14
40596;BME280;26304;48.794;9.820;2023-02-22T15:59:29;95891.69;;;18.63;46.19
40596;BME280;26304;48.794;9.820;2023-02-22T16:05:15;95881.94;;;18.60;46.51
40596;BME280;26304;48.794;9.820;2023-02-22T16:11:03;95882.66;;;18.72;46.55
40596;BME280;26304;48.794;9.820;2023-02-22T16:16:46;95881.94;;;18.60;46.13
40596;BME280;26304;48.794;9.820;2023-02-22T16:22:31;95883.44;;;18.61;46.58
40596;BME280;26304;48.794;9.820;2023-02-22T16:28:26;95891.34;;;18.58;46.38
40596;BME280;26304;48.794;9.820;2023-02-22T16:34:13;95886.81;;;18.62;46.97
40596;BME280;26304;48.794;9.820;2023-02-22T16:39:55;95882.28;;;18.73;46.63
40596;BME280;26304;48.794;9.820;2023-02-22T16:45:39;95887.16;;;18.71;45.98
40596;BME280;26304;48.794;9.820;2023-02-22T16:51:23;95887.94;;;18.72;46.88
40596;BME280;26304;48.794;9.820;2023-02-22T16:57:06;95895.44;;;18.69;46.83
40596;BME280;26304;48.794;9.820;2023-02-22T17:02:55;95898.41;;;18.82;46.19
40596;BME280;26304;48.794;9.820;2023-02-22T17:08:38;95896.94;;;18.74;45.94
40596;BME280;26304;48.794;9.820;2023-02-22T17:14:22;95892.50;;;18.53;46.64
40596;BME280;26304;48.794;9.820;2023-02-22T17:20:10;95894.75;;;18.55;45.83
40596;BME280;26304;48.794;9.820;2023-02-22T17:25:54;95898.88;;;18.56;46.21
40596;BME280;26304;48.794;9.820;2023-02-22T17:31:37;95909.78;;;18.58;46.34
40596;BME280;26304;48.794;9.820;2023-02-22T17:37:20;95920.28;;;18.65;45.76
40596;BME280;26304;48.794;9.820;2023-02-22T17:43:06;95921.09;;;18.51;46.10
40596;BME280;26304;48.794;9.820;2023-02-22T17:48:49;95923.34;;;18.52;45.76
40596;BME280;26304;48.794;9.820;2023-02-22T17:54:35;95924.09;;;18.46;45.81
40596;BME280;26304;48.794;9.820;2023-02-22T18:00:18;95918.84;;;18.42;45.87
40596;BME280;26304;48.794;9.820;2023-02-22T18:06:04;95933.13;;;18.38;46.05
40596;BME280;26304;48.794;9.820;2023-02-22T18:11:48;95925.97;;;18.45;45.44
40596;BME280;26304;48.794;9.820;2023-02-22T18:17:30;95931.22;;;18.52;45.22
40596;BME280;26304;48.794;9.820;2023-02-22T18:23:15;95931.63;;;18.51;45.55
40596;BME280;26304;48.794;9.820;2023-02-22T18:29:00;95933.84;;;18.60;45.39
40596;BME280;26304;48.794;9.820;2023-02-22T18:34:43;95933.84;;;18.56;45.31
40596;BME280;26304;48.794;9.820;2023-02-22T18:40:25;95942.88;;;18.55;45.71
40596;BME280;26304;48.794;9.820;2023-02-22T18:46:11;95951.56;;;18.45;45.54
40596;BME280;26304;48.794;9.820;2023-02-22T18:51:54;95956.44;;;18.46;45.55
40596;BME280;26304;48.794;9.820;2023-02-22T18:57:36;95948.19;;;18.37;45.88
40596;BME280;26304;48.794;9.820;2023-02-22T19:03:20;95948.53;;;18.39;46.75
40596;BME280;26304;48.794;9.820;2023-02-22T19:09:02;95946.28;;;18.45;46.79
40596;BME280;26304;48.794;9.820;2023-02-22T19:14:48;95946.59;;;18.65;46.39
40596;BME280;26304;48.794;9.820;2023-02-22T19:20:32;95943.97;;;18.72;46.55
40596;BME280;26304;48.794;9.820;2023-02-22T19:26:16;95951.84;;;18.83;46.37
40596;BME280;26304;48.794;9.820;2023-02-22T19:31:59;95957.84;;;18.83;46.34
40596;BME280;26304;48.794;9.820;2023-02-22T19:37:43;95957.09;;;18.90;46.04
40596;BME280;26304;48.794;9.820;2023-02-22T19:43:26;95964.66;;;18.84;46.55
40596;BME280;26304;48.794;9.820;2023-02-22T19:49:09;95953.34;;;18.84;47.01
40596;BME280;26304;48.794;9.820;2023-02-22T19:54:53;95964.63;;;18.92;46.22
40596;BME280;26304;48.794;9.820;2023-02-22T20:00:35;95956.72;;;18.92;46.54
40596;BME280;26304;48.794;9.820;2023-02-22T20:06:18;95968.38;;;18.94;46.07
40596;BME280;26304;48.794;9.820;2023-02-22T20:12:03;95962.69;;;19.03;46.24
40596;BME280;26304;48.794;9.820;2023-02-22T20:17:49;95970.59;;;19.03;45.95
40596;BME280;26304;48.794;9.820;2023-02-22T20:23:31;95965.38;;;18.81;46.63
40596;BME280;26304;48.794;9.820;2023-02-22T20:29:15;95963.22;;;18.40;45.63
40596;BME280;26304;48.794;9.820;2023-02-22T20:34:58;95964.72;;;18.09;45.01
40596;BME280;26304;48.794;9.820;2023-02-22T20:40:41;95969.25;;;18.05;45.13
40596;BME280;26304;48.794;9.820;2023-02-22T20:46:26;95974.50;;;17.94;44.90
40596;BME280;26304;48.794;9.820;2023-02-22T20:52:08;95985.78;;;18.27;44.73
40596;BME280;26304;48.794;9.820;2023-02-22T20:57:51;95985.41;;;18.32;44.84
40596;BME280;26304;48.794;9.820;2023-02-22T21:03:35;95986.53;;;18.31;44.81
40596;BME280;26304;48.794;9.820;2023-02-22T21:09:19;95988.78;;;18.29;45.26
40596;BME280;26304;48.794;9.820;2023-02-22T21:15:02;95973.75;;;18.26;45.28
40596;BME280;26304;48.794;9.820;2023-02-22T21:20:47;95977.13;;;18.23;45.34
40596;BME280;26304;48.794;9.820;2023-02-22T21:26:31;95983.16;;;18.20;45.68
40596;BME280;26304;48.794;9.820;2023-02-22T21:32:14;95982.78;;;18.18;45.40
40596;BME280;26304;48.794;9.820;2023-02-22T21:37:59;95979.75;;;18.15;45.66
40596;BME280;26304;48.794;9.820;2023-02-22T21:43:42;95969.97;;;18.12;45.92
40596;BME280;26304;48.794;9.820;2023-02-22T21:49:25;95972.63;;;18.09;45.56
40596;BME280;26304;48.794;9.820;2023-02-22T21:55:10;95968.88;;;18.06;46.01
40596;BME280;26304;48.794;9.820;2023-02-22T22:00:53;95960.97;;;18.03;45.80
40596;BME280;26304;48.794;9.820;2023-02-22T22:06:35;95971.88;;;18.01;46.08
40596;BME280;26304;48.794;9.820;2023-02-22T22:12:19;95963.25;;;17.97;46.20
40596;BME280;26304;48.794;9.820;2023-02-22T22:18:04;95963.25;;;17.93;46.24
40596;BME280;26304;48.794;9.820;2023-02-22T22:23:47;95961.00;;;17.92;46.83
40596;BME280;26304;48.794;9.820;2023-02-22T22:29:35;95963.63;;;17.92;46.38
40596;BME280;26304;48.794;9.820;2023-02-22T22:35:18;95966.63;;;17.90;46.20
40596;BME280;26304;48.794;9.820;2023-02-22T22:41:03;95967.00;;;17.89;46.88
40596;BME280;26304;48.794;9.820;2023-02-22T22:46:48;95970.75;;;17.88;46.23
40596;BME280;26304;48.794;9.820;2023-02-22T23:47:52;95972.19;;;17.60;47.50
40596;BME280;26304;48.794;9.820;2023-02-22T23:53:41;95965.41;;;17.59;47.36
40596;BME280;26304;48.794;9.820;2023-02-22T23:59:26;95973.31;;;17.59;47.29
